KIFA

Details ICAO KIFA
Name IOWA FALLS MUNI
Region United States
Timezone America/Chicago (UTC-5.0)
Plans Departing 3
Arriving 3
Stats Elevation 1,137 ft / 347 m (AMSL)
Location 42.470773° -93.269941°
Runways 1
Magnetic Variation 0.421° E
Sunrise 2018-05-27 10:42:44 UTC / 2018-05-27 05:42:44 Local
Sunset 2018-05-28 01:40:41 UTC / 2018-05-27 20:40:41 Local
Advertisement - Login to hide

Runways

ID Width Length Bearing (true) Bearing (mag) Surface Threshold Offset Overrun Length
13 75 ft / 23 m 3,999 ft / 1,219 m 135.31° 134.89° Asphalt 0 ft / 0 m 0 ft / 0 m
31 75 ft / 23 m 3,999 ft / 1,219 m 315.32° 314.90° Asphalt 0 ft / 0 m 0 ft / 0 m

Map

Weather


0- 5 10 15 20 25 30 35+ Temperature / ° C

Clouds and Precipitation
Forecast for 2018-05-28 00:00 UTC. Updated 3 hours ago

Ground ~20,000 ft ~40,000 ft Winds

METAR

KIFA 280135Z AUTO 10005KT 10SM CLR 29/16 A2986 RMK AO2 T02850159

TAF

Not found

Frequencies

Unicom 122.80 MHz CTAF/UNICOM
Approach 118.90 MHz WATERLOO APP/DEP
Warning: Do not use this data for real-world aviation or navigation. No guarantee of current accuracy is given.